Time;durP1;ratioP1;P1;durP2;ratioP2;P2;SDS_P1;SDS_P2;PMS_P1;PMS_P2;Temp;Humidity;BMP_temperature;BMP_pressure;BME280_temperature;BME280_humidity;BME280_pressure;Samples;Min_cycle;Max_cycle;Signal;HPM_P1;HPM_P2
2022/12/07 00:02:05;;;;;;;;;;;;;;;;;;5042953;28;20403;-80
2022/12/07 00:04:31;;;;;;;;;;;;;;;;;;5048790;28;19972;-80
2022/12/07 00:06:57;;;;;;;;;;;;;;;;;;5045604;28;20351;-81
2022/12/07 00:09:23;;;;;;;;;;;;;;;;;;5046383;28;19925;-80
2022/12/07 00:11:49;;;;;;;;;;;;;;;;;;5032741;28;19948;-80
2022/12/07 00:14:15;;;;;;;;;;;;;;;;;;5046282;28;20012;-80
2022/12/07 00:16:41;;;;;;;;;;;;;;;;;;5044724;28;19925;-80
2022/12/07 00:19:07;;;;;;;;;;;;;;;;;;5050785;28;19925;-80
2022/12/07 00:21:33;;;;;;;;;;;;;;;;;;5052565;28;19925;-80
2022/12/07 00:23:59;;;;;;;;;;;;;;;;;;5049432;28;19932;-80
2022/12/07 00:26:24;;;;;;;;;;;;;;;;;;5043129;28;20040;-80
2022/12/07 00:28:50;;;;;;;;;;;;;;;;;;5045077;28;19929;-79
2022/12/07 00:31:16;;;;;;;;;;;;;;;;;;5038501;28;19975;-80
2022/12/07 00:33:42;;;;;;;;;;;;;;;;;;5040214;28;19924;-80
2022/12/07 00:36:08;;;;;;;;;;;;;;;;;;5047474;28;19909;-80
2022/12/07 00:38:34;;;;;;;;;;;;;;;;;;5059744;28;19960;-80
2022/12/07 00:41:00;;;;;;;;;;;;;;;;;;5049112;28;19935;-80
2022/12/07 00:43:26;;;;;;;;;;;;;;;;;;5037840;28;19939;-80
2022/12/07 00:45:52;;;;;;;;;;;;;;;;;;5021160;28;20023;-80
2022/12/07 00:48:18;;;;;;;;;;;;;;;;;;5035492;28;19936;-80
2022/12/07 00:50:44;;;;;;;;;;;;;;;;;;5039413;28;19925;-79
2022/12/07 00:53:09;;;;;;;;;;;;;;;;;;5040414;28;20286;-80
2022/12/07 00:55:35;;;;;;;;;;;;;;;;;;5041013;28;19932;-80
2022/12/07 00:58:01;;;;;;;;;;;;;;;;;;5039140;28;19956;-80
2022/12/07 01:00:27;;;;;;;;;;;;;;;;;;5037850;28;19967;-79
2022/12/07 01:02:53;;;;;;;;;;;;;;;;;;5038602;28;19925;-80
2022/12/07 01:05:19;;;;;;;;;;;;;;;;;;5039134;28;20299;-79
2022/12/07 01:07:46;;;;;;;;;;;;;;;;;;5037876;28;19951;-79
2022/12/07 01:10:12;;;;;;;;;;;;;;;;;;5033462;28;19925;-80
2022/12/07 01:12:38;;;;;;;;;;;;;;;;;;5037915;28;19940;-79
2022/12/07 01:15:04;;;;;;;;;;;;;;;;;;5027115;28;20363;-79
2022/12/07 01:17:30;;;;;;;;;;;;;;;;;;5038904;28;19975;-79
2022/12/07 01:19:55;;;;;;;;;;;;;;;;;;5037985;28;19924;-79
2022/12/07 01:22:21;;;;;;;;;;;;;;;;;;5032597;28;19926;-80
2022/12/07 01:24:47;;;;;;;;;;;;;;;;;;5039154;28;19925;-81
2022/12/07 01:27:13;;;;;;;;;;;;;;;;;;5037756;28;20394;-80
2022/12/07 01:29:39;;;;;;;;;;;;;;;;;;5039064;28;19968;-80
2022/12/07 01:32:05;;;;;;;;;;;;;;;;;;5036932;28;20303;-80
2022/12/07 01:34:31;;;;;;;;;;;;;;;;;;5036510;28;19947;-79
2022/12/07 01:36:57;;;;;;;;;;;;;;;;;;5033264;28;19999;-80
2022/12/07 01:39:23;;;;;;;;;;;;;;;;;;5037757;28;19980;-79
2022/12/07 01:41:49;;;;;;;;;;;;;;;;;;5009441;28;19952;-81
2022/12/07 01:44:15;;;;;;;;;;;;;;;;;;5051495;28;20000;-81
2022/12/07 01:46:41;;;;;;;;;;;;;;;;;;5038278;28;19925;-81
2022/12/07 01:49:07;;;;;;;;;;;;;;;;;;5026903;28;19925;-81
2022/12/07 01:51:33;;;;;;;;;;;;;;;;;;5041557;28;19968;-82
2022/12/07 01:53:59;;;;;;;;;;;;;;;;;;5042164;28;20039;-81
2022/12/07 01:56:25;;;;;;;;;;;;;;;;;;5043405;28;20012;-81
2022/12/07 01:58:51;;;;;;;;;;;;;;;;;;5039728;28;19937;-80
2022/12/07 02:01:17;;;;;;;;;;;;;;;;;;5042495;28;19932;-81
2022/12/07 02:03:42;;;;;;;;;;;;;;;;;;5041565;28;19926;-80
2022/12/07 02:06:08;;;;;;;;;;;;;;;;;;5023889;28;20008;-80
2022/12/07 02:08:34;;;;;;;;;;;;;;;;;;5040477;28;20392;-81
2022/12/07 02:11:00;;;;;;;;;;;;;;;;;;5040483;28;19971;-80
2022/12/07 02:13:26;;;;;;;;;;;;;;;;;;5036519;28;19972;-80
2022/12/07 02:15:52;;;;;;;;;;;;;;;;;;5040223;28;19925;-80
2022/12/07 02:18:18;;;;;;;;;;;;;;;;;;5029646;28;19986;-80
2022/12/07 02:20:44;;;;;;;;;;;;;;;;;;5036893;28;20401;-80
2022/12/07 02:23:10;;;;;;;;;;;;;;;;;;5037624;28;19932;-79
2022/12/07 02:25:36;;;;;;;;;;;;;;;;;;5020170;28;20028;-80
2022/12/07 02:28:01;;;;;;;;;;;;;;;;;;5038488;28;19936;-80
2022/12/07 02:30:27;;;;;;;;;;;;;;;;;;5041226;28;19940;-80
2022/12/07 02:32:53;;;;;;;;;;;;;;;;;;5042010;28;19932;-79
2022/12/07 02:35:19;;;;;;;;;;;;;;;;;;5039897;28;19925;-80
2022/12/07 02:37:45;;;;;;;;;;;;;;;;;;5035167;28;20024;-79
2022/12/07 02:40:11;;;;;;;;;;;;;;;;;;5041241;28;19925;-79
2022/12/07 02:42:37;;;;;;;;;;;;;;;;;;5042771;28;19925;-78
2022/12/07 02:45:03;;;;;;;;;;;;;;;;;;5048335;28;19964;-79
2022/12/07 02:47:29;;;;;;;;;;;;;;;;;;5054584;28;19939;-79
2022/12/07 02:49:55;;;;;;;;;;;;;;;;;;5043715;28;20314;-80
2022/12/07 02:52:21;;;;;;;;;;;;;;;;;;5047812;28;19932;-79
2022/12/07 02:54:47;;;;;;;;;;;;;;;;;;5042347;28;19929;-81
2022/12/07 02:57:13;;;;;;;;;;;;;;;;;;5045138;28;19925;-81
2022/12/07 02:59:38;;;;;;;;;;;;;;;;;;5042120;28;19937;-81
2022/12/07 03:02:04;;;;;;;;;;;;;;;;;;5041573;28;20300;-81
2022/12/07 03:04:30;;;;;;;;;;;;;;;;;;5042971;28;19929;-80
2022/12/07 03:06:56;;;;;;;;;;;;;;;;;;5048957;28;19981;-80
2022/12/07 03:09:22;;;;;;;;;;;;;;;;;;5048945;28;19975;-80
2022/12/07 03:11:48;;;;;;;;;;;;;;;;;;5049617;28;19925;-80
2022/12/07 03:14:14;;;;;;;;;;;;;;;;;;5048239;28;19933;-80
2022/12/07 03:16:40;;;;;;;;;;;;;;;;;;5046415;28;19925;-80
2022/12/07 03:19:06;;;;;;;;;;;;;;;;;;5028674;28;19933;-80
2022/12/07 03:21:32;;;;;;;;;;;;;;;;;;5042714;28;19986;-80
2022/12/07 03:23:58;;;;;;;;;;;;;;;;;;5026408;28;20008;-81
2022/12/07 03:26:24;;;;;;;;;;;;;;;;;;5043267;28;19925;-82
2022/12/07 03:28:50;;;;;;;;;;;;;;;;;;5036231;28;19925;-83
2022/12/07 03:31:16;;;;;;;;;;;;;;;;;;5041589;28;20709;-83
2022/12/07 03:33:42;;;;;;;;;;;;;;;;;;5030324;28;19933;-83
2022/12/07 03:36:08;;;;;;;;;;;;;;;;;;5052137;28;19932;-83
2022/12/07 03:38:34;;;;;;;;;;;;;;;;;;5036772;28;19925;-83
2022/12/07 03:40:59;;;;;;;;;;;;;;;;;;5041501;28;19925;-82
2022/12/07 03:43:25;;;;;;;;;;;;;;;;;;5042248;28;20284;-82
2022/12/07 03:45:52;;;;;;;;;;;;;;;;;;5046125;28;19925;-82
2022/12/07 03:48:18;;;;;;;;;;;;;;;;;;5034677;28;19925;-82
2022/12/07 03:50:44;;;;;;;;;;;;;;;;;;5024372;28;19932;-80
2022/12/07 03:53:09;;;;;;;;;;;;;;;;;;5029875;28;19993;-80
2022/12/07 03:55:35;;;;;;;;;;;;;;;;;;5037247;28;19988;-81
2022/12/07 03:58:01;;;;;;;;;;;;;;;;;;5031052;28;19988;-81
2022/12/07 04:00:27;;;;;;;;;;;;;;;;;;5036892;28;19933;-80
2022/12/07 04:02:53;;;;;;;;;;;;;;;;;;5037484;28;19926;-80
2022/12/07 04:05:19;;;;;;;;;;;;;;;;;;5031829;28;19925;-80
2022/12/07 04:07:45;;;;;;;;;;;;;;;;;;5037036;28;20291;-80
2022/12/07 04:10:11;;;;;;;;;;;;;;;;;;5024994;28;19951;-80
2022/12/07 04:12:37;;;;;;;;;;;;;;;;;;5039631;28;19925;-80
2022/12/07 04:15:03;;;;;;;;;;;;;;;;;;5040962;28;19933;-80
2022/12/07 04:17:28;;;;;;;;;;;;;;;;;;5039407;28;19933;-80
2022/12/07 04:19:54;;;;;;;;;;;;;;;;;;5040831;28;20298;-80
2022/12/07 04:22:20;;;;;;;;;;;;;;;;;;5049493;28;20374;-80
2022/12/07 04:24:46;;;;;;;;;;;;;;;;;;5050934;28;19952;-80
2022/12/07 04:27:12;;;;;;;;;;;;;;;;;;5051058;28;20444;-79
2022/12/07 04:29:38;;;;;;;;;;;;;;;;;;5050436;28;19952;-79
2022/12/07 04:32:04;;;;;;;;;;;;;;;;;;5047728;28;19936;-79
2022/12/07 04:34:30;;;;;;;;;;;;;;;;;;5052078;28;19936;-79
2022/12/07 04:36:56;;;;;;;;;;;;;;;;;;5051810;28;19925;-80
2022/12/07 04:39:22;;;;;;;;;;;;;;;;;;5028324;28;19947;-80
2022/12/07 04:41:48;;;;;;;;;;;;;;;;;;5046507;28;19913;-80
2022/12/07 04:44:14;;;;;;;;;;;;;;;;;;5054280;28;19948;-80
2022/12/07 04:46:40;;;;;;;;;;;;;;;;;;5043541;28;19929;-80
2022/12/07 04:49:06;;;;;;;;;;;;;;;;;;5050688;28;19997;-80
2022/12/07 04:51:32;;;;;;;;;;;;;;;;;;5049476;28;19913;-79
2022/12/07 04:53:58;;;;;;;;;;;;;;;;;;5048633;28;19932;-79
2022/12/07 04:56:24;;;;;;;;;;;;;;;;;;5048820;28;19932;-80
2022/12/07 04:58:49;;;;;;;;;;;;;;;;;;5043525;28;20007;-80
2022/12/07 05:01:15;;;;;;;;;;;;;;;;;;5045444;28;19925;-79
2022/12/07 05:03:41;;;;;;;;;;;;;;;;;;5044370;28;20322;-79
2022/12/07 05:06:07;;;;;;;;;;;;;;;;;;5053181;28;19932;-79
2022/12/07 05:08:33;;;;;;;;;;;;;;;;;;5046374;28;19932;-79
2022/12/07 05:10:59;;;;;;;;;;;;;;;;;;5045074;28;19925;-79
2022/12/07 05:13:25;;;;;;;;;;;;;;;;;;5045164;28;19986;-80
2022/12/07 05:15:51;;;;;;;;;;;;;;;;;;5046118;28;19964;-80
2022/12/07 05:18:17;;;;;;;;;;;;;;;;;;5047575;28;19926;-80
2022/12/07 05:20:43;;;;;;;;;;;;;;;;;;5048148;28;19949;-80
2022/12/07 05:23:09;;;;;;;;;;;;;;;;;;5046850;28;19925;-80
2022/12/07 05:25:35;;;;;;;;;;;;;;;;;;5042975;28;19929;-80
2022/12/07 05:28:00;;;;;;;;;;;;;;;;;;5042508;28;19933;-80
2022/12/07 05:30:26;;;;;;;;;;;;;;;;;;5048547;28;19932;-80
2022/12/07 05:32:52;;;;;;;;;;;;;;;;;;5047657;28;19939;-80
2022/12/07 05:35:18;;;;;;;;;;;;;;;;;;5048685;28;19936;-80
2022/12/07 05:37:44;;;;;;;;;;;;;;;;;;5046557;28;19926;-81
2022/12/07 05:40:10;;;;;;;;;;;;;;;;;;5049417;28;19941;-81
2022/12/07 05:42:37;;;;;;;;;;;;;;;;;;5050970;28;19953;-80
2022/12/07 05:45:02;;;;;;;;;;;;;;;;;;5052953;28;19925;-81
2022/12/07 05:47:28;;;;;;;;;;;;;;;;;;5050613;28;19913;-81
2022/12/07 05:49:54;;;;;;;;;;;;;;;;;;5053042;28;19993;-81
2022/12/07 05:52:20;;;;;;;;;;;;;;;;;;5047941;28;19930;-82
2022/12/07 05:54:46;;;;;;;;;;;;;;;;;;5052088;28;19926;-82
2022/12/07 05:57:12;;;;;;;;;;;;;;;;;;5040798;28;19925;-82
2022/12/07 05:59:38;;;;;;;;;;;;;;;;;;5036672;28;19932;-80
2022/12/07 06:02:04;;;;;;;;;;;;;;;;;;5032441;28;19983;-81
2022/12/07 06:04:30;;;;;;;;;;;;;;;;;;5030727;28;20360;-81
2022/12/07 06:06:55;;;;;;;;;;;;;;;;;;5036835;28;19925;-81
2022/12/07 06:09:21;;;;;;;;;;;;;;;;;;5037256;28;19932;-80
2022/12/07 06:14:32;;;;;;;;;;;;;;;;;;5026500;28;20371;-80
2022/12/07 06:16:58;;;;;;;;;;;;;;;;;;5037749;28;19925;-80
2022/12/07 06:19:24;;;;;;;;;;;;;;;;;;5035416;28;19925;-80
2022/12/07 06:21:50;;;;;;;;;;;;;;;;;;5033237;28;20327;-80
2022/12/07 06:24:16;;;;;;;;;;;;;;;;;;5030647;28;20260;-80
2022/12/07 06:26:42;;;;;;;;;;;;;;;;;;5030982;28;19952;-81
2022/12/07 06:29:08;;;;;;;;;;;;;;;;;;5029938;28;19925;-80
2022/12/07 06:31:34;;;;;;;;;;;;;;;;;;5033598;28;20267;-81
2022/12/07 06:34:00;;;;;;;;;;;;;;;;;;5032753;28;19926;-81
2022/12/07 06:36:25;;;;;;;;;;;;;;;;;;5037977;28;19930;-81
2022/12/07 06:38:51;;;;;;;;;;;;;;;;;;5034093;28;20012;-81
2022/12/07 06:41:17;;;;;;;;;;;;;;;;;;5034845;28;19925;-80
2022/12/07 06:43:43;;;;;;;;;;;;;;;;;;5035391;28;19933;-81
2022/12/07 06:46:09;;;;;;;;;;;;;;;;;;5036381;28;19930;-81
2022/12/07 06:48:35;;;;;;;;;;;;;;;;;;5039174;28;19929;-81
2022/12/07 06:51:01;;;;;;;;;;;;;;;;;;5041335;28;19932;-81
2022/12/07 06:53:27;;;;;;;;;;;;;;;;;;5048351;28;19924;-81
2022/12/07 06:55:53;;;;;;;;;;;;;;;;;;5046673;28;19925;-81
2022/12/07 06:58:19;;;;;;;;;;;;;;;;;;5053830;28;19909;-81
2022/12/07 07:00:45;;;;;;;;;;;;;;;;;;5056894;28;19953;-81
2022/12/07 07:03:10;;;;;;;;;;;;;;;;;;5054213;28;19921;-81
2022/12/07 07:05:36;;;;;;;;;;;;;;;;;;5030809;28;20012;-81
2022/12/07 07:08:02;;;;;;;;;;;;;;;;;;5048202;28;19987;-81
2022/12/07 07:10:28;;;;;;;;;;;;;;;;;;5062195;28;19947;-82
2022/12/07 07:12:54;;;;;;;;;;;;;;;;;;5057501;28;19915;-83
2022/12/07 07:15:20;;;;;;;;;;;;;;;;;;5063752;28;19925;-81
2022/12/07 07:17:46;;;;;;;;;;;;;;;;;;5056809;28;19926;-81
2022/12/07 07:20:12;;;;;;;;;;;;;;;;;;5046779;28;19925;-82
2022/12/07 07:22:38;;;;;;;;;;;;;;;;;;5039901;28;19925;-82
2022/12/07 07:25:04;;;;;;;;;;;;;;;;;;5033430;28;19951;-82
2022/12/07 07:27:29;;;;;;;;;;;;;;;;;;5048972;28;19979;-82
2022/12/07 07:29:55;;;;;;;;;;;;;;;;;;5046097;28;19955;-82
2022/12/07 07:32:22;;;;;;;;;;;;;;;;;;5046473;28;19925;-82
2022/12/07 07:34:48;;;;;;;;;;;;;;;;;;5039603;28;19925;-84
2022/12/07 07:37:14;;;;;;;;;;;;;;;;;;5049105;28;19936;-83
2022/12/07 07:39:40;;;;;;;;;;;;;;;;;;5052721;28;19947;-84
2022/12/07 07:42:07;;;;;;;;;;;;;;;;;;5048172;28;20004;-83
2022/12/07 07:44:33;;;;;;;;;;;;;;;;;;5045113;28;20310;-83
2022/12/07 07:46:59;;;;;;;;;;;;;;;;;;5060006;28;19925;-82
2022/12/07 07:49:25;;;;;;;;;;;;;;;;;;5040853;28;19930;-82
2022/12/07 07:51:51;;;;;;;;;;;;;;;;;;5034352;28;20074;-83
2022/12/07 07:54:16;;;;;;;;;;;;;;;;;;5040516;28;19925;-83
2022/12/07 07:56:42;;;;;;;;;;;;;;;;;;5045152;28;19935;-83
2022/12/07 07:59:08;;;;;;;;;;;;;;;;;;5061581;28;20269;-82
2022/12/07 08:01:34;;;;;;;;;;;;;;;;;;5026238;28;20016;-81
2022/12/07 08:04:00;;;;;;;;;;;;;;;;;;5032892;28;19925;-81
2022/12/07 08:06:26;;;;;;;;;;;;;;;;;;5046652;28;19926;-81
2022/12/07 08:08:52;;;;;;;;;;;;;;;;;;5045438;28;19965;-81
2022/12/07 08:11:18;;;;;;;;;;;;;;;;;;5039753;28;19929;-81
2022/12/07 08:13:44;;;;;;;;;;;;;;;;;;5050248;28;19925;-81
2022/12/07 08:16:10;;;;;;;;;;;;;;;;;;5043280;28;19929;-81
2022/12/07 08:18:36;;;;;;;;;;;;;;;;;;5045513;28;19925;-81
2022/12/07 08:21:02;;;;;;;;;;;;;;;;;;5045303;28;19956;-82
2022/12/07 08:23:28;;;;;;;;;;;;;;;;;;5042684;28;19925;-81
2022/12/07 08:25:54;;;;;;;;;;;;;;;;;;5028663;28;19972;-80
2022/12/07 08:28:20;;;;;;;;;;;;;;;;;;5040103;28;19979;-81
2022/12/07 08:30:46;;;;;;;;;;;;;;;;;;5039992;28;20361;-82
2022/12/07 08:33:12;;;;;;;;;;;;;;;;;;5042677;28;20012;-81
2022/12/07 08:35:38;;;;;;;;;;;;;;;;;;5041755;28;20027;-81
2022/12/07 08:38:03;;;;;;;;;;;;;;;;;;5041545;28;19981;-81
2022/12/07 08:40:29;;;;;;;;;;;;;;;;;;5041690;28;20021;-82
2022/12/07 08:42:55;;;;;;;;;;;;;;;;;;5043695;28;19928;-82
2022/12/07 08:45:21;;;;;;;;;;;;;;;;;;5043401;28;20041;-82
2022/12/07 08:47:47;;;;;;;;;;;;;;;;;;5043145;28;20382;-81
2022/12/07 08:50:13;;;;;;;;;;;;;;;;;;5031436;28;19926;-81
2022/12/07 08:52:39;;;;;;;;;;;;;;;;;;5026929;28;19925;-81
2022/12/07 08:55:05;;;;;;;;;;;;;;;;;;5025712;28;20000;-81
2022/12/07 08:57:31;;;;;;;;;;;;;;;;;;5030746;28;19947;-81
2022/12/07 08:59:57;;;;;;;;;;;;;;;;;;5045164;28;19969;-82
2022/12/07 09:02:23;;;;;;;;;;;;;;;;;;5046516;28;19926;-81
2022/12/07 09:04:49;;;;;;;;;;;;;;;;;;5047298;28;20013;-81
2022/12/07 09:07:14;;;;;;;;;;;;;;;;;;5048980;28;20161;-81
2022/12/07 09:09:41;;;;;;;;;;;;;;;;;;5056109;28;19935;-81
2022/12/07 09:12:07;;;;;;;;;;;;;;;;;;5032614;28;19933;-81
2022/12/07 09:14:33;;;;;;;;;;;;;;;;;;5027655;28;19925;-81
2022/12/07 09:16:59;;;;;;;;;;;;;;;;;;5036348;28;19925;-81
2022/12/07 09:19:25;;;;;;;;;;;;;;;;;;5034973;28;20036;-82
2022/12/07 09:21:51;;;;;;;;;;;;;;;;;;5035077;28;20339;-81
2022/12/07 09:24:17;;;;;;;;;;;;;;;;;;5020920;28;19984;-80
2022/12/07 09:26:44;;;;;;;;;;;;;;;;;;5023725;28;20008;-80
2022/12/07 09:29:10;;;;;;;;;;;;;;;;;;5024684;28;20024;-79
2022/12/07 09:31:35;;;;;;;;;;;;;;;;;;5030374;28;20023;-80
2022/12/07 09:34:01;;;;;;;;;;;;;;;;;;5031061;28;19975;-80
2022/12/07 09:36:27;;;;;;;;;;;;;;;;;;5031257;28;20391;-80
2022/12/07 09:38:53;;;;;;;;;;;;;;;;;;5027142;28;19980;-80
2022/12/07 09:41:19;;;;;;;;;;;;;;;;;;5020035;28;19948;-80
2022/12/07 09:43:46;;;;;;;;;;;;;;;;;;5043569;28;19985;-80
2022/12/07 09:46:12;;;;;;;;;;;;;;;;;;5032234;28;19975;-79
2022/12/07 09:48:39;;;;;;;;;;;;;;;;;;5009811;28;19926;-78
2022/12/07 09:51:05;;;;;;;;;;;;;;;;;;5039388;28;20311;-79
2022/12/07 09:53:31;;;;;;;;;;;;;;;;;;5043667;28;19925;-80
2022/12/07 09:55:57;;;;;;;;;;;;;;;;;;5043854;28;19932;-80
2022/12/07 09:58:23;;;;;;;;;;;;;;;;;;5053746;28;20307;-79
2022/12/07 10:00:49;;;;;;;;;;;;;;;;;;5054246;28;19925;-79
2022/12/07 10:03:15;;;;;;;;;;;;;;;;;;5051973;28;19948;-79
2022/12/07 10:05:41;;;;;;;;;;;;;;;;;;5045059;28;19925;-79
2022/12/07 10:08:10;;;;;;;;;;;;;;;;;;5050683;28;19932;-79
2022/12/07 10:10:42;;;;;;;;;;;;;;;;;;5048911;28;19979;-79
2022/12/07 10:13:09;;;;;;;;;;;;;;;;;;5053826;28;19929;-77
2022/12/07 10:15:36;;;;;;;;;;;;;;;;;;5038535;28;20283;-77
2022/12/07 10:18:03;;;;;;;;;;;;;;;;;;5035045;28;19926;-77
2022/12/07 10:20:29;;;;;;;;;;;;;;;;;;5029038;28;19931;-77
2022/12/07 10:22:55;;;;;;;;;;;;;;;;;;5036440;28;20015;-79
2022/12/07 10:25:21;;;;;;;;;;;;;;;;;;5037301;28;19932;-77
2022/12/07 10:27:47;;;;;;;;;;;;;;;;;;5031297;28;20278;-78
2022/12/07 10:30:13;;;;;;;;;;;;;;;;;;5028226;28;20315;-77
2022/12/07 10:32:39;;;;;;;;;;;;;;;;;;5035692;28;19925;-77
2022/12/07 10:35:05;;;;;;;;;;;;;;;;;;5031245;28;20658;-77
2022/12/07 10:37:31;;;;;;;;;;;;;;;;;;5037214;28;20012;-77
2022/12/07 10:39:57;;;;;;;;;;;;;;;;;;5032360;28;19955;-77
2022/12/07 10:42:23;;;;;;;;;;;;;;;;;;5017498;28;19972;-77
2022/12/07 10:44:49;;;;;;;;;;;;;;;;;;5026915;28;19960;-77
2022/12/07 10:47:14;;;;;;;;;;;;;;;;;;5036401;28;20218;-77
2022/12/07 10:49:40;;;;;;;;;;;;;;;;;;5035187;28;19995;-77
2022/12/07 10:52:06;;;;;;;;;;;;;;;;;;5036885;28;19972;-77
2022/12/07 10:54:32;;;;;;;;;;;;;;;;;;5036901;28;20390;-77
2022/12/07 10:56:58;;;;;;;;;;;;;;;;;;5033804;28;19929;-77
2022/12/07 10:59:24;;;;;;;;;;;;;;;;;;5034208;28;19945;-78
2022/12/07 11:01:50;;;;;;;;;;;;;;;;;;5036544;28;19929;-79
2022/12/07 11:04:16;;;;;;;;;;;;;;;;;;5038919;28;20067;-78
2022/12/07 11:06:42;;;;;;;;;;;;;;;;;;5043910;28;19979;-79
2022/12/07 11:09:08;;;;;;;;;;;;;;;;;;5046960;28;19968;-79
2022/12/07 11:11:34;;;;;;;;;;;;;;;;;;5038104;28;20016;-77
2022/12/07 11:13:59;;;;;;;;;;;;;;;;;;5036603;28;19932;-77
2022/12/07 11:16:25;;;;;;;;;;;;;;;;;;5035554;28;19929;-78
2022/12/07 11:18:51;;;;;;;;;;;;;;;;;;5034159;28;19947;-78
2022/12/07 11:21:17;;;;;;;;;;;;;;;;;;5035952;28;19929;-78
2022/12/07 11:23:43;;;;;;;;;;;;;;;;;;5037015;28;19925;-78
2022/12/07 11:26:09;;;;;;;;;;;;;;;;;;5033942;28;19935;-78
2022/12/07 11:28:35;;;;;;;;;;;;;;;;;;5037721;28;20383;-77
2022/12/07 11:31:01;;;;;;;;;;;;;;;;;;5034737;28;19925;-78
2022/12/07 11:33:27;;;;;;;;;;;;;;;;;;5036368;28;19925;-78
2022/12/07 11:35:53;;;;;;;;;;;;;;;;;;5018622;28;19932;-78
2022/12/07 11:38:19;;;;;;;;;;;;;;;;;;5019306;28;19921;-78
2022/12/07 11:40:45;;;;;;;;;;;;;;;;;;5017704;28;19930;-78
2022/12/07 11:43:11;;;;;;;;;;;;;;;;;;5025009;28;19926;-78
2022/12/07 11:45:37;;;;;;;;;;;;;;;;;;5035691;28;19925;-78
2022/12/07 11:48:03;;;;;;;;;;;;;;;;;;5038921;28;19932;-78
2022/12/07 11:50:29;;;;;;;;;;;;;;;;;;5039241;28;19944;-78
2022/12/07 11:52:55;;;;;;;;;;;;;;;;;;5048691;28;20028;-79
2022/12/07 11:55:21;;;;;;;;;;;;;;;;;;5046411;28;19925;-79
2022/12/07 11:57:47;;;;;;;;;;;;;;;;;;5048413;28;20436;-79
2022/12/07 12:00:14;;;;;;;;;;;;;;;;;;5047038;28;19925;-79
2022/12/07 12:02:40;;;;;;;;;;;;;;;;;;5048022;28;19935;-79
2022/12/07 12:05:06;;;;;;;;;;;;;;;;;;5033390;28;19957;-79
2022/12/07 12:07:32;;;;;;;;;;;;;;;;;;5028701;28;19929;-79
2022/12/07 12:09:58;;;;;;;;;;;;;;;;;;5032074;28;19964;-79
2022/12/07 12:12:24;;;;;;;;;;;;;;;;;;5031447;28;19926;-79
2022/12/07 12:14:50;;;;;;;;;;;;;;;;;;5036744;28;19928;-80
2022/12/07 12:17:16;;;;;;;;;;;;;;;;;;5018166;28;19926;-79
2022/12/07 12:19:42;;;;;;;;;;;;;;;;;;5031920;28;20364;-79
2022/12/07 12:22:08;;;;;;;;;;;;;;;;;;5031052;28;19925;-79
2022/12/07 12:24:37;;;;;;;;;;;;;;;;;;5025735;28;20357;-79
2022/12/07 12:27:03;;;;;;;;;;;;;;;;;;5040412;28;19925;-78
2022/12/07 12:29:29;;;;;;;;;;;;;;;;;;5038473;28;19932;-78
2022/12/07 12:31:55;;;;;;;;;;;;;;;;;;5038225;28;19925;-79
2022/12/07 12:34:21;;;;;;;;;;;;;;;;;;5038890;28;19925;-78
2022/12/07 12:36:47;;;;;;;;;;;;;;;;;;5030142;28;19956;-78
2022/12/07 12:39:14;;;;;;;;;;;;;;;;;;5032996;28;20405;-79
2022/12/07 12:44:15;;;;;;;;;;;;;;;;;;5033747;28;19977;-78
2022/12/07 12:46:40;;;;;;;;;;;;;;;;;;5041430;28;19925;-78
2022/12/07 12:49:06;;;;;;;;;;;;;;;;;;5044884;28;19947;-79
2022/12/07 12:51:32;;;;;;;;;;;;;;;;;;5045877;28;19925;-80
2022/12/07 12:53:58;;;;;;;;;;;;;;;;;;5024347;28;19925;-79
2022/12/07 12:56:24;;;;;;;;;;;;;;;;;;5038491;28;19925;-79
2022/12/07 12:58:50;;;;;;;;;;;;;;;;;;5043375;28;19925;-79
2022/12/07 13:01:16;;;;;;;;;;;;;;;;;;5040007;28;19931;-80
2022/12/07 13:03:42;;;;;;;;;;;;;;;;;;5060196;28;19932;-79
2022/12/07 13:06:08;;;;;;;;;;;;;;;;;;5026357;28;20004;-78
2022/12/07 13:08:34;;;;;;;;;;;;;;;;;;5026603;28;19973;-78
2022/12/07 13:11:00;;;;;;;;;;;;;;;;;;5036239;28;19979;-78
2022/12/07 13:13:26;;;;;;;;;;;;;;;;;;5035215;28;19929;-79
2022/12/07 13:15:52;;;;;;;;;;;;;;;;;;5035198;28;19925;-78
2022/12/07 13:18:18;;;;;;;;;;;;;;;;;;5036684;28;19925;-77
2022/12/07 13:20:44;;;;;;;;;;;;;;;;;;5038786;28;19988;-78
2022/12/07 13:23:10;;;;;;;;;;;;;;;;;;5022102;28;19992;-79
2022/12/07 13:25:36;;;;;;;;;;;;;;;;;;5041371;28;19948;-80
2022/12/07 13:28:02;;;;;;;;;;;;;;;;;;5041007;28;19980;-79
2022/12/07 13:30:28;;;;;;;;;;;;;;;;;;5042131;28;19925;-79
2022/12/07 13:32:54;;;;;;;;;;;;;;;;;;5037827;28;19925;-78
2022/12/07 13:35:21;;;;;;;;;;;;;;;;;;5037315;28;19948;-79
2022/12/07 13:37:48;;;;;;;;;;;;;;;;;;5037939;28;20330;-79
2022/12/07 13:40:13;;;;;;;;;;;;;;;;;;5044601;28;19933;-79
2022/12/07 13:42:39;;;;;;;;;;;;;;;;;;5048766;28;19936;-80
2022/12/07 13:45:05;;;;;;;;;;;;;;;;;;5049715;28;19992;-79
2022/12/07 13:47:31;;;;;;;;;;;;;;;;;;5046827;28;19975;-80
2022/12/07 13:49:57;;;;;;;;;;;;;;;;;;5046863;28;19925;-83
2022/12/07 13:52:24;;;;;;;;;;;;;;;;;;5027228;28;19932;-79
2022/12/07 13:54:50;;;;;;;;;;;;;;;;;;5043743;28;19932;-80
2022/12/07 13:57:16;;;;;;;;;;;;;;;;;;5045628;28;19952;-81
2022/12/07 13:59:42;;;;;;;;;;;;;;;;;;5026170;28;20013;-80
2022/12/07 14:02:08;;;;;;;;;;;;;;;;;;5048487;28;19925;-80
2022/12/07 14:04:34;;;;;;;;;;;;;;;;;;5047846;28;19925;-80
2022/12/07 14:07:01;;;;;;;;;;;;;;;;;;5041286;28;19932;-80
2022/12/07 14:09:27;;;;;;;;;;;;;;;;;;5044661;28;19932;-80
2022/12/07 14:11:53;;;;;;;;;;;;;;;;;;5045670;28;19926;-79
2022/12/07 14:14:19;;;;;;;;;;;;;;;;;;5038186;28;19933;-80
2022/12/07 14:16:45;;;;;;;;;;;;;;;;;;5046855;28;19929;-79
2022/12/07 14:19:11;;;;;;;;;;;;;;;;;;5048954;28;19988;-80
2022/12/07 14:21:37;;;;;;;;;;;;;;;;;;5034512;28;19960;-80
2022/12/07 14:24:02;;;;;;;;;;;;;;;;;;5053727;28;20032;-80
2022/12/07 14:26:28;;;;;;;;;;;;;;;;;;5055454;28;19929;-79
2022/12/07 14:28:54;;;;;;;;;;;;;;;;;;5056256;28;19913;-80
2022/12/07 14:31:20;;;;;;;;;;;;;;;;;;5057110;28;19925;-80
2022/12/07 14:33:46;;;;;;;;;;;;;;;;;;5056613;28;19992;-80
2022/12/07 14:36:12;;;;;;;;;;;;;;;;;;5056514;28;19925;-79
2022/12/07 14:38:38;;;;;;;;;;;;;;;;;;5053377;28;19941;-80
2022/12/07 14:43:49;;;;;;;;;;;;;;;;;;5036471;28;20315;-79
2022/12/07 14:46:15;;;;;;;;;;;;;;;;;;5046367;28;19933;-79
2022/12/07 14:48:43;;;;;;;;;;;;;;;;;;5052655;28;20338;-81
2022/12/07 14:51:09;;;;;;;;;;;;;;;;;;5051419;28;19914;-80
2022/12/07 14:53:35;;;;;;;;;;;;;;;;;;5050655;28;19925;-79
2022/12/07 14:56:01;;;;;;;;;;;;;;;;;;5055347;28;19936;-80
2022/12/07 14:58:27;;;;;;;;;;;;;;;;;;5058448;28;19925;-81
2022/12/07 15:00:53;;;;;;;;;;;;;;;;;;5058607;28;19980;-80
2022/12/07 15:03:22;;;;;;;;;;;;;;;;;;5058652;28;19932;-81
2022/12/07 15:05:50;;;;;;;;;;;;;;;;;;5054305;28;19929;-79
2022/12/07 15:08:16;;;;;;;;;;;;;;;;;;5060218;28;19924;-79
2022/12/07 15:10:42;;;;;;;;;;;;;;;;;;5060985;28;19913;-80
2022/12/07 15:15:53;;;;;;;;;;;;;;;;;;5053406;28;20019;-81
2022/12/07 15:18:19;;;;;;;;;;;;;;;;;;5038465;28;19937;-80
2022/12/07 15:20:45;;;;;;;;;;;;;;;;;;5050936;28;19931;-80
2022/12/07 15:23:11;;;;;;;;;;;;;;;;;;5039517;28;19926;-79
2022/12/07 15:25:37;;;;;;;;;;;;;;;;;;5039586;28;19924;-79
2022/12/07 15:28:03;;;;;;;;;;;;;;;;;;5038732;28;19926;-80
2022/12/07 15:30:29;;;;;;;;;;;;;;;;;;5040436;28;19979;-79
2022/12/07 15:32:54;;;;;;;;;;;;;;;;;;5054558;28;19933;-79
2022/12/07 15:35:20;;;;;;;;;;;;;;;;;;5053308;28;19913;-79
2022/12/07 15:37:47;;;;;;;;;;;;;;;;;;5059543;28;19925;-79
2022/12/07 15:40:12;;;;;;;;;;;;;;;;;;5056474;28;19948;-79
2022/12/07 15:42:38;;;;;;;;;;;;;;;;;;5058130;28;19971;-79
2022/12/07 15:45:05;;;;;;;;;;;;;;;;;;5054019;28;19967;-79
2022/12/07 15:47:30;;;;;;;;;;;;;;;;;;5056646;28;19925;-79
2022/12/07 15:49:56;;;;;;;;;;;;;;;;;;5050108;28;19953;-79
2022/12/07 15:52:22;;;;;;;;;;;;;;;;;;5054252;28;20422;-80
2022/12/07 15:54:48;;;;;;;;;;;;;;;;;;5057243;28;19916;-80
2022/12/07 15:57:14;;;;;;;;;;;;;;;;;;5056584;28;19913;-80
2022/12/07 15:59:40;;;;;;;;;;;;;;;;;;5057096;28;19920;-80
2022/12/07 16:02:06;;;;;;;;;;;;;;;;;;5050776;28;19930;-80
2022/12/07 16:04:32;;;;;;;;;;;;;;;;;;5050346;28;19917;-80
2022/12/07 16:06:58;;;;;;;;;;;;;;;;;;5049187;28;19925;-80
2022/12/07 16:09:24;;;;;;;;;;;;;;;;;;5057563;28;19914;-79
2022/12/07 16:11:50;;;;;;;;;;;;;;;;;;5043721;28;19913;-80
2022/12/07 16:14:16;;;;;;;;;;;;;;;;;;5058488;28;19925;-80
2022/12/07 16:16:42;;;;;;;;;;;;;;;;;;5055766;28;19936;-80
2022/12/07 16:19:08;;;;;;;;;;;;;;;;;;5061248;28;19909;-80
2022/12/07 16:21:35;;;;;;;;;;;;;;;;;;5061565;28;19912;-80
2022/12/07 16:24:01;;;;;;;;;;;;;;;;;;5058678;28;19981;-81
2022/12/07 16:26:27;;;;;;;;;;;;;;;;;;5056197;28;19916;-80
2022/12/07 16:28:53;;;;;;;;;;;;;;;;;;5042780;28;19933;-81
2022/12/07 16:31:19;;;;;;;;;;;;;;;;;;5054856;28;20653;-79
2022/12/07 16:33:45;;;;;;;;;;;;;;;;;;5054726;28;19925;-81
2022/12/07 16:36:11;;;;;;;;;;;;;;;;;;5064502;28;19932;-79
2022/12/07 16:38:37;;;;;;;;;;;;;;;;;;5055953;28;19921;-80
2022/12/07 16:41:02;;;;;;;;;;;;;;;;;;5054551;28;19992;-80
2022/12/07 16:43:28;;;;;;;;;;;;;;;;;;5054175;28;19948;-80
2022/12/07 16:45:54;;;;;;;;;;;;;;;;;;5055718;28;20306;-80
2022/12/07 16:48:20;;;;;;;;;;;;;;;;;;5053140;28;19933;-81